createdAt,value
2022-10-15T00:00:07.812Z,8.10
2022-10-15T00:02:38.449Z,8.47
2022-10-15T00:05:12.965Z,7.37
2022-10-15T00:07:42.967Z,6.43
2022-10-15T00:10:11.619Z,8.73
2022-10-15T00:12:42.115Z,5.83
2022-10-15T00:15:11.942Z,6.20
2022-10-15T00:18:05.000Z,6.43
2022-10-15T00:20:33.402Z,7.37
2022-10-15T00:23:01.991Z,6.13
2022-10-15T00:25:30.309Z,5.57
2022-10-15T00:28:00.175Z,9.43
2022-10-15T00:30:29.019Z,5.53
2022-10-15T00:33:01.324Z,9.10
2022-10-15T00:35:30.134Z,6.97
2022-10-15T00:38:03.824Z,7.17
2022-10-15T00:40:32.377Z,6.73
2022-10-15T00:43:02.367Z,8.27
2022-10-15T00:45:31.937Z,8.37
2022-10-15T00:48:00.475Z,8.80
2022-10-15T00:50:57.672Z,6.27
2022-10-15T00:53:26.686Z,10.70
2022-10-15T00:55:55.718Z,5.97
2022-10-15T00:58:33.448Z,7.37
2022-10-15T01:01:02.457Z,6.67
2022-10-15T01:03:31.835Z,6.27
2022-10-15T01:06:00.379Z,6.07
2022-10-15T01:08:28.776Z,7.43
2022-10-15T01:11:10.789Z,6.03
2022-10-15T01:13:47.956Z,7.40
2022-10-15T01:16:26.337Z,6.03
2022-10-15T01:19:01.331Z,6.70
2022-10-15T01:21:36.203Z,7.57
2022-10-15T01:24:43.588Z,7.90
2022-10-15T01:27:30.524Z,7.77
2022-10-15T01:30:23.732Z,6.70
2022-10-15T01:33:09.390Z,9.43
2022-10-15T01:35:47.736Z,9.83
2022-10-15T01:38:34.619Z,8.03
2022-10-15T01:41:10.244Z,7.80
2022-10-15T01:43:45.379Z,6.47
2022-10-15T01:46:19.079Z,9.13
2022-10-15T01:48:50.545Z,7.57
2022-10-15T01:51:20.924Z,9.80
2022-10-15T01:53:50.818Z,7.77
2022-10-15T01:56:24.010Z,7.37
2022-10-15T01:58:58.827Z,10.43
2022-10-15T02:01:27.551Z,7.10
2022-10-15T02:03:57.529Z,8.57
2022-10-15T02:06:31.734Z,7.73
2022-10-15T02:09:08.943Z,7.13
2022-10-15T02:12:11.009Z,6.93
2022-10-15T02:15:08.192Z,6.43
2022-10-15T02:17:42.048Z,6.33
2022-10-15T02:20:16.638Z,7.07
2022-10-15T02:22:52.929Z,6.40
2022-10-15T02:25:24.725Z,7.70
2022-10-15T02:27:56.246Z,8.10
2022-10-15T02:30:26.153Z,7.63
2022-10-15T02:32:59.289Z,6.77
2022-10-15T02:35:29.917Z,5.83
2022-10-15T02:38:02.569Z,6.30
2022-10-15T02:40:33.072Z,5.67
2022-10-15T02:43:02.065Z,6.80
2022-10-15T02:45:31.125Z,5.80
2022-10-15T02:48:25.554Z,6.37
2022-10-15T02:50:55.953Z,5.33
2022-10-15T02:53:24.626Z,6.13
2022-10-15T02:55:53.312Z,5.50
2022-10-15T02:58:21.876Z,5.87
2022-10-15T03:00:59.466Z,6.33
2022-10-15T03:03:28.176Z,6.73
2022-10-15T03:05:58.305Z,6.17
2022-10-15T03:08:26.983Z,7.23
2022-10-15T03:10:55.416Z,6.17
2022-10-15T03:13:30.311Z,7.30
2022-10-15T03:15:59.311Z,7.03
2022-10-15T03:18:27.839Z,6.40
2022-10-15T03:20:58.223Z,7.33
2022-10-15T03:23:27.048Z,6.77
2022-10-15T03:25:55.728Z,5.37
2022-10-15T03:28:26.418Z,7.93
2022-10-15T03:30:54.855Z,6.13
2022-10-15T03:33:25.204Z,7.63
2022-10-15T03:35:55.129Z,6.20
2022-10-15T03:38:25.273Z,6.10
2022-10-15T03:40:53.834Z,5.43
2022-10-15T03:43:26.032Z,12.40
2022-10-15T03:45:55.223Z,10.30
2022-10-15T03:48:36.369Z,11.00
2022-10-15T03:51:05.123Z,7.70
2022-10-15T03:53:35.206Z,9.77
2022-10-15T03:56:06.522Z,8.40
2022-10-15T03:58:35.174Z,6.80
2022-10-15T04:01:03.924Z,7.50
2022-10-15T04:03:32.458Z,7.40
2022-10-15T04:06:01.267Z,6.80
2022-10-15T04:08:31.760Z,8.47
2022-10-15T04:11:02.055Z,7.37
2022-10-15T04:13:55.072Z,6.90
2022-10-15T04:16:23.668Z,6.47
2022-10-15T04:18:52.270Z,7.03
2022-10-15T04:21:21.694Z,6.57
2022-10-15T04:23:50.289Z,5.87
2022-10-15T04:26:23.661Z,7.60
2022-10-15T04:28:51.998Z,6.37
2022-10-15T04:31:20.646Z,8.43
2022-10-15T04:33:50.451Z,6.50
2022-10-15T04:36:18.991Z,7.20
2022-10-15T04:38:47.433Z,7.30
2022-10-15T04:41:15.753Z,7.87
2022-10-15T04:43:46.226Z,7.57
2022-10-15T04:46:41.067Z,7.00
2022-10-15T04:49:09.603Z,9.33
2022-10-15T04:51:37.970Z,9.23
2022-10-15T04:54:06.697Z,7.63
2022-10-15T04:56:35.374Z,7.47
2022-10-15T04:59:08.969Z,9.80
2022-10-15T05:01:37.788Z,8.03
2022-10-15T05:04:15.825Z,8.47
2022-10-15T05:06:44.559Z,7.03
2022-10-15T05:09:13.172Z,8.00
2022-10-15T05:11:41.728Z,6.80
2022-10-15T05:14:11.541Z,8.13
2022-10-15T05:16:39.835Z,7.17
2022-10-15T05:19:09.793Z,7.67
2022-10-15T05:21:38.518Z,7.90
2022-10-15T05:24:16.132Z,8.10
2022-10-15T05:26:44.584Z,8.97
2022-10-15T05:29:14.890Z,10.23
2022-10-15T05:31:43.448Z,10.23
2022-10-15T05:34:12.903Z,9.73
2022-10-15T05:36:41.192Z,10.27
2022-10-15T05:39:12.253Z,7.60
2022-10-15T05:41:40.967Z,8.80
2022-10-15T05:44:09.426Z,8.47
2022-10-15T05:46:39.271Z,9.10
2022-10-15T05:49:07.836Z,7.37
2022-10-15T05:51:36.407Z,18.80
2022-10-15T05:54:05.192Z,14.77
2022-10-15T05:56:33.583Z,15.27
2022-10-15T05:59:03.291Z,12.90
2022-10-15T06:01:32.331Z,10.87
2022-10-15T06:04:02.017Z,10.77
2022-10-15T06:06:30.747Z,12.77
2022-10-15T06:09:01.947Z,13.43
2022-10-15T06:11:30.592Z,9.70
2022-10-15T06:13:58.770Z,10.13
2022-10-15T06:16:27.143Z,7.20
2022-10-15T06:18:55.505Z,5.67
2022-10-15T06:21:25.328Z,5.57
2022-10-15T06:23:53.992Z,5.70
2022-10-15T06:26:22.353Z,6.93
2022-10-15T06:28:51.048Z,9.17
2022-10-15T06:31:19.457Z,4.60
2022-10-15T06:33:47.708Z,6.00
2022-10-15T06:36:16.086Z,5.73
2022-10-15T06:38:48.087Z,4.67
2022-10-15T06:41:40.860Z,5.80
2022-10-15T06:44:09.445Z,4.40
2022-10-15T06:46:38.954Z,6.90
2022-10-15T06:49:07.433Z,7.80
2022-10-15T06:51:37.476Z,14.70
2022-10-15T06:54:07.719Z,7.90
2022-10-15T06:56:36.132Z,7.10
2022-10-15T06:59:04.477Z,4.93
2022-10-15T07:01:33.183Z,7.63
2022-10-15T07:04:03.174Z,7.10
2022-10-15T07:06:31.628Z,8.10
2022-10-15T07:09:02.491Z,8.47
2022-10-15T07:11:32.679Z,7.97
2022-10-15T07:14:01.113Z,8.33
2022-10-15T07:16:29.518Z,7.20
2022-10-15T07:18:57.872Z,7.90
2022-10-15T07:21:35.457Z,6.33
2022-10-15T07:24:04.276Z,16.83
2022-10-15T07:26:33.908Z,8.67
2022-10-15T07:29:03.814Z,7.53
2022-10-15T07:31:32.307Z,25.03
2022-10-15T07:34:00.705Z,5.93
2022-10-15T07:36:29.197Z,6.13
2022-10-15T07:38:57.649Z,7.20
2022-10-15T07:41:26.158Z,9.60
2022-10-15T07:43:56.986Z,5.20
2022-10-15T07:46:25.776Z,5.73
2022-10-15T07:48:54.227Z,7.87
2022-10-15T07:51:22.920Z,4.97
2022-10-15T07:53:51.184Z,8.73
2022-10-15T07:56:19.476Z,6.87
2022-10-15T07:58:52.015Z,9.37
2022-10-15T08:01:23.160Z,7.83
2022-10-15T08:03:51.713Z,7.00
2022-10-15T08:06:20.449Z,7.13
2022-10-15T08:08:49.106Z,6.23
2022-10-15T08:11:18.580Z,7.47
2022-10-15T08:13:48.305Z,6.63
2022-10-15T08:16:19.684Z,7.53
2022-10-15T08:19:17.789Z,6.33
2022-10-15T08:21:47.460Z,7.57
2022-10-15T08:24:16.188Z,7.47
2022-10-15T08:26:44.491Z,7.13
2022-10-15T08:29:12.845Z,8.50
2022-10-15T08:31:41.461Z,8.07
2022-10-15T08:34:10.079Z,8.60
2022-10-15T08:36:39.705Z,9.13
2022-10-15T08:39:09.479Z,8.33
2022-10-15T08:41:41.187Z,8.73
2022-10-15T08:44:21.262Z,5.70
2022-10-15T08:46:53.713Z,6.67
2022-10-15T08:49:34.298Z,7.80
2022-10-15T08:52:14.225Z,9.37
2022-10-15T08:54:42.706Z,7.70
2022-10-15T08:57:22.894Z,7.87
2022-10-15T08:59:59.223Z,8.93
2022-10-15T09:02:35.348Z,8.47
2022-10-15T09:05:22.257Z,6.87
2022-10-15T09:07:57.681Z,7.00
2022-10-15T09:10:36.339Z,8.97
2022-10-15T09:13:31.964Z,7.17
2022-10-15T09:16:04.879Z,6.70
2022-10-15T09:18:36.782Z,6.13
2022-10-15T09:21:06.784Z,5.93
2022-10-15T09:23:37.081Z,9.17
2022-10-15T09:26:14.699Z,8.20
2022-10-15T09:28:49.199Z,7.07
2022-10-15T09:31:24.212Z,10.63
2022-10-15T09:33:59.971Z,7.10
2022-10-15T09:36:38.160Z,7.40
2022-10-15T09:39:32.374Z,6.10
2022-10-15T09:42:51.244Z,6.13
2022-10-15T09:45:20.379Z,6.27
2022-10-15T09:47:48.660Z,8.13
2022-10-15T09:53:01.794Z,7.10
2022-10-15T09:55:38.322Z,7.53
2022-10-15T09:58:10.528Z,10.73
2022-10-15T10:00:58.674Z,6.27
2022-10-15T10:03:29.076Z,10.03
2022-10-15T10:06:03.829Z,7.10
2022-10-15T10:08:36.377Z,5.80
2022-10-15T10:11:09.374Z,4.93
2022-10-15T10:13:42.537Z,7.63
2022-10-15T10:16:12.417Z,5.70
2022-10-15T10:18:41.980Z,8.27
2022-10-15T10:21:26.566Z,6.00
2022-10-15T10:23:55.210Z,10.87
2022-10-15T10:26:25.179Z,5.10
2022-10-15T10:28:56.924Z,6.47
2022-10-15T10:32:00.074Z,6.83
2022-10-15T10:34:58.296Z,5.30
2022-10-15T10:37:27.772Z,4.50
2022-10-15T10:39:58.646Z,4.63
2022-10-15T10:42:33.891Z,5.77
2022-10-15T10:45:21.053Z,6.13
2022-10-15T10:47:49.891Z,5.83
2022-10-15T10:50:30.104Z,4.00
2022-10-15T10:53:00.389Z,7.63
2022-10-15T10:55:39.000Z,6.73
2022-10-15T10:58:17.045Z,4.40
2022-10-15T11:00:47.556Z,10.03
2022-10-15T11:03:42.239Z,3.60
2022-10-15T11:06:46.633Z,11.20
2022-10-15T11:09:30.263Z,3.23
2022-10-15T11:12:14.091Z,4.00
2022-10-15T11:14:54.817Z,4.10
2022-10-15T11:17:37.730Z,3.17
2022-10-15T11:23:25.044Z,3.20
2022-10-15T11:26:21.935Z,3.77
2022-10-15T11:28:59.848Z,4.33
2022-10-15T11:31:44.024Z,3.17
2022-10-15T11:34:33.063Z,5.10
2022-10-15T11:37:31.001Z,5.17
2022-10-15T11:40:16.254Z,3.03
2022-10-15T11:42:54.666Z,3.20
2022-10-15T11:45:51.360Z,2.83
2022-10-15T11:51:25.739Z,2.30
2022-10-15T11:54:15.414Z,4.83
2022-10-15T11:56:48.538Z,2.60
2022-10-15T11:59:31.104Z,2.60
2022-10-15T12:02:03.834Z,4.30
2022-10-15T12:05:00.366Z,6.27
2022-10-15T12:07:36.217Z,3.97
2022-10-15T12:10:16.244Z,6.53
2022-10-15T12:12:51.807Z,5.23
2022-10-15T12:15:32.061Z,17.37
2022-10-15T12:18:06.033Z,4.03
2022-10-15T12:20:35.939Z,6.00
2022-10-15T12:23:04.725Z,2.77
2022-10-15T12:25:45.241Z,2.50
2022-10-15T12:28:33.138Z,3.23
2022-10-15T12:31:03.378Z,2.33
2022-10-15T12:33:36.451Z,2.70
2022-10-15T12:36:10.699Z,3.60
2022-10-15T12:38:41.309Z,3.40
2022-10-15T12:41:12.062Z,4.27
2022-10-15T12:43:44.308Z,3.03
2022-10-15T12:46:14.253Z,8.30
2022-10-15T12:48:48.200Z,4.07
2022-10-15T12:51:42.089Z,16.00
2022-10-15T12:54:38.991Z,4.03
2022-10-15T12:57:44.543Z,3.90
2022-10-15T13:00:43.904Z,3.43
2022-10-15T13:03:35.858Z,4.20
2022-10-15T13:06:33.503Z,3.50
2022-10-15T13:09:25.235Z,7.13
2022-10-15T13:11:55.542Z,4.90
2022-10-15T13:14:30.893Z,8.93
2022-10-15T13:17:00.077Z,7.97
2022-10-15T13:19:32.173Z,6.37
2022-10-15T13:22:02.633Z,3.60
2022-10-15T13:24:46.096Z,4.87
2022-10-15T13:27:23.534Z,7.30
2022-10-15T13:29:58.662Z,7.40
2022-10-15T13:32:28.663Z,4.27
2022-10-15T13:34:58.684Z,8.23
2022-10-15T13:37:32.677Z,5.13
2022-10-15T13:40:07.599Z,6.30
2022-10-15T13:42:37.202Z,5.50
2022-10-15T13:45:17.578Z,6.73
2022-10-15T13:47:50.275Z,2.97
2022-10-15T13:50:24.534Z,4.70
2022-10-15T13:52:56.867Z,4.07
2022-10-15T13:55:29.642Z,2.70
2022-10-15T13:58:02.149Z,9.17
2022-10-15T14:00:33.881Z,3.17
2022-10-15T14:03:10.622Z,10.30
2022-10-15T14:05:39.158Z,4.03
2022-10-15T14:08:15.612Z,4.53
2022-10-15T14:10:45.411Z,2.93
2022-10-15T14:13:14.073Z,4.63
2022-10-15T14:15:53.251Z,5.93
2022-10-15T14:18:32.943Z,3.00
2022-10-15T14:21:02.232Z,9.67
2022-10-15T14:23:30.715Z,4.57
2022-10-15T14:26:02.620Z,4.70
2022-10-15T14:28:40.021Z,26.07
2022-10-15T14:31:09.303Z,6.13
2022-10-15T14:33:46.148Z,4.27
2022-10-15T14:36:30.602Z,6.60
2022-10-15T14:39:30.488Z,9.50
2022-10-15T14:42:04.773Z,3.03
2022-10-15T14:44:44.103Z,2.90
2022-10-15T14:47:20.845Z,3.77
2022-10-15T14:49:50.574Z,4.63
2022-10-15T14:52:21.269Z,2.70
2022-10-15T14:55:02.504Z,4.90
2022-10-15T14:57:36.055Z,3.07
2022-10-15T15:00:07.015Z,3.93
2022-10-15T15:02:35.379Z,3.60
2022-10-15T15:05:21.696Z,5.10
2022-10-15T15:07:50.103Z,3.87
2022-10-15T15:10:18.723Z,2.97
2022-10-15T15:12:52.997Z,3.30
2022-10-15T15:15:27.597Z,3.33
2022-10-15T15:17:55.954Z,5.93
2022-10-15T15:20:26.382Z,3.10
2022-10-15T15:22:56.121Z,4.53
2022-10-15T15:25:30.135Z,5.60
2022-10-15T15:28:00.397Z,3.80
2022-10-15T15:30:30.697Z,5.27
2022-10-15T15:33:00.779Z,6.20
2022-10-15T15:35:35.008Z,4.07
2022-10-15T15:38:03.538Z,3.50
2022-10-15T15:40:32.827Z,5.23
2022-10-15T15:45:45.389Z,2.73
2022-10-15T15:48:14.329Z,5.27
2022-10-15T15:50:42.845Z,5.67
2022-10-15T15:53:14.072Z,5.83
2022-10-15T15:55:42.551Z,6.53
2022-10-15T15:58:12.351Z,8.03
2022-10-15T16:00:41.083Z,6.47
2022-10-15T16:03:12.843Z,8.90
2022-10-15T16:06:20.067Z,22.00
2022-10-15T16:08:48.302Z,22.60
2022-10-15T16:12:03.336Z,17.90
2022-10-15T16:14:34.544Z,41.67
2022-10-15T16:17:02.968Z,40.13
2022-10-15T16:19:31.581Z,40.87
2022-10-15T16:22:00.095Z,31.60
2022-10-15T16:24:28.465Z,27.73
2022-10-15T16:27:33.116Z,24.60
2022-10-15T16:30:15.991Z,24.80
2022-10-15T16:32:44.453Z,28.73
2022-10-15T16:35:12.879Z,25.50
2022-10-15T16:37:41.336Z,24.03
2022-10-15T16:40:10.870Z,22.23
2022-10-15T16:42:39.684Z,16.57
2022-10-15T16:45:09.117Z,12.20
2022-10-15T16:47:38.943Z,13.30
2022-10-15T16:50:09.150Z,10.93
2022-10-15T16:52:37.794Z,8.73
2022-10-15T16:55:06.839Z,10.03
2022-10-15T16:57:35.215Z,10.57
2022-10-15T17:00:04.696Z,8.47
2022-10-15T17:02:33.278Z,8.73
2022-10-15T17:05:03.302Z,10.07
2022-10-15T17:07:31.811Z,10.43
2022-10-15T17:10:00.615Z,12.73
2022-10-15T17:12:29.468Z,14.57
2022-10-15T17:14:57.857Z,15.07
2022-10-15T17:17:26.517Z,18.60
2022-10-15T17:19:55.047Z,19.43
2022-10-15T17:22:25.410Z,20.43
2022-10-15T17:24:53.930Z,17.33
2022-10-15T17:27:35.934Z,12.23
2022-10-15T17:30:04.633Z,11.50
2022-10-15T17:32:32.977Z,10.57
2022-10-15T17:35:04.147Z,7.93
2022-10-15T17:40:03.849Z,7.27
2022-10-15T17:42:32.209Z,6.33
2022-10-15T17:45:00.525Z,13.80
2022-10-15T17:47:38.757Z,10.77
2022-10-15T17:50:08.562Z,10.33
2022-10-15T17:52:38.621Z,11.33
2022-10-15T17:55:08.292Z,14.50
2022-10-15T17:57:36.772Z,11.40
2022-10-15T18:00:08.346Z,12.97
2022-10-15T18:03:01.662Z,13.73
2022-10-15T18:05:30.151Z,10.13
2022-10-15T18:07:59.959Z,5.87
2022-10-15T18:10:28.542Z,8.27
2022-10-15T18:12:56.985Z,5.97
2022-10-15T18:15:25.583Z,8.17
2022-10-15T18:17:54.874Z,6.47
2022-10-15T18:20:24.324Z,6.00
2022-10-15T18:22:53.511Z,6.73
2022-10-15T18:25:23.942Z,6.90
2022-10-15T18:27:52.764Z,10.07
2022-10-15T18:30:21.550Z,8.77
2022-10-15T18:32:52.166Z,5.70
2022-10-15T18:35:23.045Z,9.27
2022-10-15T18:37:51.994Z,9.13
2022-10-15T18:40:20.684Z,10.10
2022-10-15T18:42:50.574Z,12.40
2022-10-15T18:45:19.308Z,13.17
2022-10-15T18:47:47.843Z,13.87
2022-10-15T18:50:16.395Z,11.73
2022-10-15T18:52:45.362Z,12.83
2022-10-15T18:55:14.541Z,15.87
2022-10-15T18:57:43.510Z,14.70
2022-10-15T19:00:15.932Z,14.47
2022-10-15T19:02:44.560Z,8.93
2022-10-15T19:05:12.880Z,12.73
2022-10-15T19:07:41.446Z,16.40
2022-10-15T19:10:10.595Z,9.87
2022-10-15T19:12:39.047Z,8.57
2022-10-15T19:15:08.656Z,7.53
2022-10-15T19:18:00.273Z,7.63
2022-10-15T19:20:53.731Z,8.50
2022-10-15T19:23:22.358Z,8.50
2022-10-15T19:25:50.871Z,8.23
2022-10-15T19:28:19.770Z,7.70
2022-10-15T19:30:56.664Z,10.90
2022-10-15T19:33:27.877Z,10.00
2022-10-15T19:35:57.509Z,9.07
2022-10-15T19:38:27.781Z,7.83
2022-10-15T19:40:56.777Z,7.37
2022-10-15T19:43:25.443Z,6.47
2022-10-15T19:45:54.060Z,7.57
2022-10-15T19:48:24.913Z,6.13
2022-10-15T19:50:55.211Z,8.57
2022-10-15T19:53:23.970Z,10.80
2022-10-15T19:55:57.835Z,7.30
2022-10-15T19:58:26.554Z,8.60
2022-10-15T20:00:56.373Z,7.70
2022-10-15T20:03:28.790Z,8.23
2022-10-15T20:05:59.413Z,7.60
2022-10-15T20:08:28.045Z,8.90
2022-10-15T20:10:56.676Z,10.33
2022-10-15T20:13:25.507Z,8.47
2022-10-15T20:15:55.878Z,10.07
2022-10-15T20:18:25.223Z,9.80
2022-10-15T20:20:53.839Z,7.97
2022-10-15T20:23:26.342Z,8.63
2022-10-15T20:25:54.982Z,8.90
2022-10-15T20:28:23.608Z,13.30
2022-10-15T20:30:55.544Z,10.57
2022-10-15T20:33:23.892Z,8.93
2022-10-15T20:35:52.403Z,8.73
2022-10-15T20:38:20.880Z,9.07
2022-10-15T20:40:51.123Z,10.43
2022-10-15T20:43:21.995Z,9.83
2022-10-15T20:45:50.504Z,8.83
2022-10-15T20:48:22.701Z,8.07
2022-10-15T20:50:52.333Z,8.23
2022-10-15T20:53:26.695Z,9.43
2022-10-15T20:55:56.795Z,9.50
2022-10-15T20:58:26.266Z,10.33
2022-10-15T21:00:54.856Z,12.10
2022-10-15T21:03:23.624Z,10.20
2022-10-15T21:05:52.316Z,8.50
2022-10-15T21:08:20.996Z,9.40
2022-10-15T21:10:49.667Z,6.53
2022-10-15T21:13:19.835Z,7.67
2022-10-15T21:15:48.438Z,9.13
2022-10-15T21:18:17.091Z,7.90
2022-10-15T21:20:45.495Z,6.93
2022-10-15T21:23:14.182Z,7.03
2022-10-15T21:25:42.813Z,6.90
2022-10-15T21:28:11.642Z,6.77
2022-10-15T21:30:42.777Z,8.83
2022-10-15T21:33:11.188Z,6.37
2022-10-15T21:35:39.826Z,8.27
2022-10-15T21:38:08.443Z,7.70
2022-10-15T21:40:37.106Z,8.67
2022-10-15T21:43:05.864Z,8.17
2022-10-15T21:45:34.154Z,7.80
2022-10-15T21:48:04.222Z,6.03
2022-10-15T21:50:32.826Z,8.73
2022-10-15T21:53:03.895Z,6.43
2022-10-15T21:55:32.529Z,7.77
2022-10-15T21:58:01.357Z,8.93
2022-10-15T22:00:32.119Z,7.43
2022-10-15T22:03:00.732Z,6.67
2022-10-15T22:05:30.837Z,8.60
2022-10-15T22:07:59.386Z,10.13
2022-10-15T22:10:27.959Z,6.30
2022-10-15T22:12:58.328Z,6.67
2022-10-15T22:15:26.948Z,7.50
2022-10-15T22:17:55.627Z,6.73
2022-10-15T22:20:24.319Z,6.30
2022-10-15T22:22:55.304Z,7.17
2022-10-15T22:25:23.884Z,8.57
2022-10-15T22:27:52.470Z,6.13
2022-10-15T22:30:20.782Z,6.57
2022-10-15T22:32:49.454Z,7.23
2022-10-15T22:35:18.191Z,9.13
2022-10-15T22:37:46.849Z,6.40
2022-10-15T22:41:07.344Z,7.13
2022-10-15T22:43:38.242Z,7.30
2022-10-15T22:46:07.431Z,7.57
2022-10-15T22:48:36.244Z,8.33
2022-10-15T22:51:07.271Z,5.67
2022-10-15T22:53:36.280Z,8.43
2022-10-15T22:56:07.003Z,7.03
2022-10-15T22:58:38.096Z,7.17
2022-10-15T23:01:11.710Z,6.43
2022-10-15T23:03:41.372Z,10.27
2022-10-15T23:06:10.164Z,7.80
2022-10-15T23:08:39.220Z,8.13
2022-10-15T23:11:10.544Z,6.40
2022-10-15T23:13:42.075Z,7.70
2022-10-15T23:16:13.258Z,6.63
2022-10-15T23:18:42.049Z,6.00
2022-10-15T23:21:14.477Z,5.87
2022-10-15T23:23:43.596Z,7.13
2022-10-15T23:26:13.564Z,6.17
2022-10-15T23:28:44.582Z,7.03
2022-10-15T23:31:18.145Z,5.10
2022-10-15T23:33:47.085Z,5.53
2022-10-15T23:36:17.628Z,8.07
2022-10-15T23:38:46.629Z,5.63
2022-10-15T23:41:15.720Z,5.83
2022-10-15T23:43:46.295Z,7.00
2022-10-15T23:46:15.604Z,7.33
2022-10-15T23:48:44.914Z,6.13
2022-10-15T23:51:14.854Z,6.30
2022-10-15T23:56:13.664Z,6.80
2022-10-15T23:58:42.866Z,6.23
